sensor_id;sensor_type;location;lat;lon;timestamp;P1;durP1;ratioP1;P2;durP2;ratioP2
36257;SDS011;22294;52.044;4.582;2022-11-15T00:01:38;83.90;;;35.40;;
36257;SDS011;22294;52.044;4.582;2022-11-15T00:04:04;80.57;;;34.17;;
36257;SDS011;22294;52.044;4.582;2022-11-15T00:06:30;79.20;;;34.40;;
36257;SDS011;22294;52.044;4.582;2022-11-15T00:08:59;81.88;;;34.67;;
36257;SDS011;22294;52.044;4.582;2022-11-15T00:11:25;83.47;;;34.55;;
36257;SDS011;22294;52.044;4.582;2022-11-15T00:13:50;78.50;;;35.55;;
36257;SDS011;22294;52.044;4.582;2022-11-15T00:16:16;81.20;;;34.75;;
36257;SDS011;22294;52.044;4.582;2022-11-15T00:18:41;81.13;;;35.63;;
36257;SDS011;22294;52.044;4.582;2022-11-15T00:21:09;85.57;;;34.80;;
36257;SDS011;22294;52.044;4.582;2022-11-15T00:23:36;85.60;;;34.60;;
36257;SDS011;22294;52.044;4.582;2022-11-15T00:26:02;83.15;;;34.10;;
36257;SDS011;22294;52.044;4.582;2022-11-15T00:28:28;73.95;;;33.17;;
36257;SDS011;22294;52.044;4.582;2022-11-15T00:30:59;77.00;;;34.10;;
36257;SDS011;22294;52.044;4.582;2022-11-15T00:33:25;80.00;;;33.45;;
36257;SDS011;22294;52.044;4.582;2022-11-15T00:35:50;90.53;;;34.55;;
36257;SDS011;22294;52.044;4.582;2022-11-15T00:38:15;93.82;;;34.35;;
36257;SDS011;22294;52.044;4.582;2022-11-15T00:40:41;99.35;;;34.30;;
36257;SDS011;22294;52.044;4.582;2022-11-15T00:43:06;88.07;;;33.80;;
36257;SDS011;22294;52.044;4.582;2022-11-15T00:45:31;77.10;;;33.03;;
36257;SDS011;22294;52.044;4.582;2022-11-15T00:47:56;88.97;;;35.15;;
36257;SDS011;22294;52.044;4.582;2022-11-15T00:50:22;81.65;;;33.55;;
36257;SDS011;22294;52.044;4.582;2022-11-15T00:52:47;97.13;;;36.42;;
36257;SDS011;22294;52.044;4.582;2022-11-15T00:55:16;88.75;;;36.05;;
36257;SDS011;22294;52.044;4.582;2022-11-15T00:57:42;79.75;;;34.80;;
36257;SDS011;22294;52.044;4.582;2022-11-15T01:00:08;88.38;;;34.28;;
36257;SDS011;22294;52.044;4.582;2022-11-15T01:02:34;82.75;;;34.28;;
36257;SDS011;22294;52.044;4.582;2022-11-15T01:04:59;99.13;;;37.38;;
36257;SDS011;22294;52.044;4.582;2022-11-15T01:07:24;93.18;;;36.70;;
36257;SDS011;22294;52.044;4.582;2022-11-15T01:09:50;86.78;;;36.65;;
36257;SDS011;22294;52.044;4.582;2022-11-15T01:12:15;89.25;;;35.40;;
36257;SDS011;22294;52.044;4.582;2022-11-15T01:14:40;86.30;;;35.25;;
36257;SDS011;22294;52.044;4.582;2022-11-15T01:17:06;99.88;;;37.72;;
36257;SDS011;22294;52.044;4.582;2022-11-15T01:19:31;93.38;;;36.83;;
36257;SDS011;22294;52.044;4.582;2022-11-15T01:21:56;94.40;;;37.50;;
36257;SDS011;22294;52.044;4.582;2022-11-15T01:24:21;103.35;;;37.72;;
36257;SDS011;22294;52.044;4.582;2022-11-15T01:26:47;89.80;;;36.05;;
36257;SDS011;22294;52.044;4.582;2022-11-15T01:29:12;92.75;;;35.90;;
36257;SDS011;22294;52.044;4.582;2022-11-15T01:31:37;100.78;;;36.78;;
36257;SDS011;22294;52.044;4.582;2022-11-15T01:34:03;93.53;;;37.10;;
36257;SDS011;22294;52.044;4.582;2022-11-15T01:36:28;97.78;;;35.13;;
36257;SDS011;22294;52.044;4.582;2022-11-15T01:38:54;98.40;;;37.28;;
36257;SDS011;22294;52.044;4.582;2022-11-15T01:41:27;102.75;;;36.72;;
36257;SDS011;22294;52.044;4.582;2022-11-15T01:43:56;94.70;;;37.03;;
36257;SDS011;22294;52.044;4.582;2022-11-15T01:48:50;96.32;;;39.08;;
36257;SDS011;22294;52.044;4.582;2022-11-15T01:51:18;99.80;;;40.08;;
36257;SDS011;22294;52.044;4.582;2022-11-15T01:53:48;104.20;;;40.20;;
36257;SDS011;22294;52.044;4.582;2022-11-15T01:56:17;100.05;;;39.33;;
36257;SDS011;22294;52.044;4.582;2022-11-15T01:58:47;102.35;;;40.10;;
36257;SDS011;22294;52.044;4.582;2022-11-15T02:01:13;99.90;;;37.95;;
36257;SDS011;22294;52.044;4.582;2022-11-15T02:03:45;102.82;;;38.17;;
36257;SDS011;22294;52.044;4.582;2022-11-15T02:06:16;104.20;;;40.47;;
36257;SDS011;22294;52.044;4.582;2022-11-15T02:08:43;107.13;;;39.25;;
36257;SDS011;22294;52.044;4.582;2022-11-15T02:11:09;104.00;;;39.15;;
36257;SDS011;22294;52.044;4.582;2022-11-15T02:13:35;98.57;;;38.90;;
36257;SDS011;22294;52.044;4.582;2022-11-15T02:19:21;95.88;;;39.15;;
36257;SDS011;22294;52.044;4.582;2022-11-15T02:22:37;110.05;;;39.53;;
36257;SDS011;22294;52.044;4.582;2022-11-15T02:33:53;120.82;;;42.60;;
36257;SDS011;22294;52.044;4.582;2022-11-15T02:38:41;102.63;;;40.85;;
36257;SDS011;22294;52.044;4.582;2022-11-15T02:41:16;110.28;;;39.50;;
36257;SDS011;22294;52.044;4.582;2022-11-15T02:43:50;118.53;;;40.40;;
36257;SDS011;22294;52.044;4.582;2022-11-15T02:46:40;120.32;;;39.72;;
36257;SDS011;22294;52.044;4.582;2022-11-15T02:49:28;95.70;;;38.25;;
36257;SDS011;22294;52.044;4.582;2022-11-15T02:51:56;109.85;;;39.60;;
36257;SDS011;22294;52.044;4.582;2022-11-15T02:54:23;114.80;;;40.03;;
36257;SDS011;22294;52.044;4.582;2022-11-15T02:56:51;108.75;;;39.40;;
36257;SDS011;22294;52.044;4.582;2022-11-15T03:04:56;98.65;;;39.22;;
36257;SDS011;22294;52.044;4.582;2022-11-15T03:07:31;86.82;;;36.55;;
36257;SDS011;22294;52.044;4.582;2022-11-15T03:13:23;94.95;;;37.35;;
36257;SDS011;22294;52.044;4.582;2022-11-15T03:16:04;99.97;;;38.17;;
36257;SDS011;22294;52.044;4.582;2022-11-15T03:18:56;86.30;;;36.30;;
36257;SDS011;22294;52.044;4.582;2022-11-15T03:21:38;89.22;;;36.85;;
36257;SDS011;22294;52.044;4.582;2022-11-15T03:24:05;87.95;;;37.60;;
36257;SDS011;22294;52.044;4.582;2022-11-15T03:26:33;75.38;;;34.53;;
36257;SDS011;22294;52.044;4.582;2022-11-15T03:29:03;80.05;;;34.88;;
36257;SDS011;22294;52.044;4.582;2022-11-15T03:31:34;72.30;;;34.33;;
36257;SDS011;22294;52.044;4.582;2022-11-15T03:34:25;68.93;;;32.97;;
36257;SDS011;22294;52.044;4.582;2022-11-15T03:36:54;67.25;;;31.40;;
36257;SDS011;22294;52.044;4.582;2022-11-15T03:39:19;61.88;;;30.48;;
36257;SDS011;22294;52.044;4.582;2022-11-15T03:41:48;64.60;;;32.88;;
36257;SDS011;22294;52.044;4.582;2022-11-15T03:44:29;64.43;;;30.50;;
36257;SDS011;22294;52.044;4.582;2022-11-15T03:50:05;59.80;;;29.27;;
36257;SDS011;22294;52.044;4.582;2022-11-15T03:52:35;59.40;;;29.23;;
36257;SDS011;22294;52.044;4.582;2022-11-15T03:55:02;55.75;;;28.92;;
36257;SDS011;22294;52.044;4.582;2022-11-15T03:57:29;62.50;;;30.17;;
36257;SDS011;22294;52.044;4.582;2022-11-15T03:59:54;51.05;;;27.70;;
36257;SDS011;22294;52.044;4.582;2022-11-15T04:02:19;58.80;;;28.17;;
36257;SDS011;22294;52.044;4.582;2022-11-15T04:04:45;51.15;;;27.30;;
36257;SDS011;22294;52.044;4.582;2022-11-15T04:07:10;56.30;;;28.05;;
36257;SDS011;22294;52.044;4.582;2022-11-15T04:09:36;53.17;;;28.30;;
36257;SDS011;22294;52.044;4.582;2022-11-15T04:12:20;50.95;;;27.58;;
36257;SDS011;22294;52.044;4.582;2022-11-15T04:14:55;48.83;;;25.85;;
36257;SDS011;22294;52.044;4.582;2022-11-15T04:17:32;47.33;;;25.33;;
36257;SDS011;22294;52.044;4.582;2022-11-15T04:19:58;47.10;;;25.02;;
36257;SDS011;22294;52.044;4.582;2022-11-15T04:22:42;38.17;;;23.60;;
36257;SDS011;22294;52.044;4.582;2022-11-15T04:25:26;39.53;;;22.15;;
36257;SDS011;22294;52.044;4.582;2022-11-15T04:27:52;37.72;;;20.77;;
36257;SDS011;22294;52.044;4.582;2022-11-15T04:30:17;35.85;;;20.13;;
36257;SDS011;22294;52.044;4.582;2022-11-15T04:32:42;37.55;;;20.33;;
36257;SDS011;22294;52.044;4.582;2022-11-15T04:35:08;38.70;;;20.20;;
36257;SDS011;22294;52.044;4.582;2022-11-15T04:37:33;34.72;;;18.23;;
36257;SDS011;22294;52.044;4.582;2022-11-15T04:39:59;34.17;;;18.52;;
36257;SDS011;22294;52.044;4.582;2022-11-15T04:42:24;34.03;;;19.35;;
36257;SDS011;22294;52.044;4.582;2022-11-15T04:44:49;31.55;;;18.63;;
36257;SDS011;22294;52.044;4.582;2022-11-15T04:47:14;33.35;;;18.42;;
36257;SDS011;22294;52.044;4.582;2022-11-15T04:49:40;35.47;;;18.50;;
36257;SDS011;22294;52.044;4.582;2022-11-15T04:52:05;32.85;;;18.48;;
36257;SDS011;22294;52.044;4.582;2022-11-15T04:54:30;31.92;;;17.80;;
36257;SDS011;22294;52.044;4.582;2022-11-15T04:56:56;32.85;;;17.67;;
36257;SDS011;22294;52.044;4.582;2022-11-15T04:59:21;37.03;;;17.90;;
36257;SDS011;22294;52.044;4.582;2022-11-15T05:01:46;30.58;;;17.70;;
36257;SDS011;22294;52.044;4.582;2022-11-15T05:04:11;28.45;;;16.80;;
36257;SDS011;22294;52.044;4.582;2022-11-15T05:06:47;33.15;;;18.38;;
36257;SDS011;22294;52.044;4.582;2022-11-15T05:09:13;31.33;;;16.60;;
36257;SDS011;22294;52.044;4.582;2022-11-15T05:11:39;26.60;;;16.13;;
36257;SDS011;22294;52.044;4.582;2022-11-15T05:14:05;32.88;;;17.08;;
36257;SDS011;22294;52.044;4.582;2022-11-15T05:16:30;34.10;;;16.70;;
36257;SDS011;22294;52.044;4.582;2022-11-15T05:18:55;31.35;;;16.67;;
36257;SDS011;22294;52.044;4.582;2022-11-15T05:21:21;25.20;;;15.15;;
36257;SDS011;22294;52.044;4.582;2022-11-15T05:23:46;30.65;;;15.65;;
36257;SDS011;22294;52.044;4.582;2022-11-15T05:26:11;27.27;;;16.08;;
36257;SDS011;22294;52.044;4.582;2022-11-15T05:28:39;30.08;;;15.80;;
36257;SDS011;22294;52.044;4.582;2022-11-15T05:31:08;30.48;;;15.80;;
36257;SDS011;22294;52.044;4.582;2022-11-15T05:33:37;26.17;;;15.60;;
36257;SDS011;22294;52.044;4.582;2022-11-15T05:36:04;25.17;;;14.90;;
36257;SDS011;22294;52.044;4.582;2022-11-15T05:38:34;25.45;;;15.05;;
36257;SDS011;22294;52.044;4.582;2022-11-15T05:41:00;28.33;;;14.63;;
36257;SDS011;22294;52.044;4.582;2022-11-15T05:43:27;26.83;;;14.90;;
36257;SDS011;22294;52.044;4.582;2022-11-15T05:45:56;26.50;;;14.88;;
36257;SDS011;22294;52.044;4.582;2022-11-15T05:48:23;21.42;;;13.35;;
36257;SDS011;22294;52.044;4.582;2022-11-15T05:50:48;23.73;;;14.02;;
36257;SDS011;22294;52.044;4.582;2022-11-15T05:53:15;26.52;;;13.70;;
36257;SDS011;22294;52.044;4.582;2022-11-15T05:55:42;24.63;;;13.35;;
36257;SDS011;22294;52.044;4.582;2022-11-15T05:58:08;24.13;;;12.55;;
36257;SDS011;22294;52.044;4.582;2022-11-15T06:00:33;20.98;;;12.30;;
36257;SDS011;22294;52.044;4.582;2022-11-15T06:02:58;18.20;;;11.68;;
36257;SDS011;22294;52.044;4.582;2022-11-15T06:05:24;19.52;;;11.60;;
36257;SDS011;22294;52.044;4.582;2022-11-15T06:07:49;18.63;;;10.80;;
36257;SDS011;22294;52.044;4.582;2022-11-15T06:10:14;17.38;;;10.45;;
36257;SDS011;22294;52.044;4.582;2022-11-15T06:12:40;20.42;;;9.80;;
36257;SDS011;22294;52.044;4.582;2022-11-15T06:15:05;17.63;;;8.40;;
36257;SDS011;22294;52.044;4.582;2022-11-15T06:17:31;20.58;;;9.43;;
36257;SDS011;22294;52.044;4.582;2022-11-15T06:19:56;14.10;;;8.82;;
36257;SDS011;22294;52.044;4.582;2022-11-15T06:22:21;16.75;;;8.40;;
36257;SDS011;22294;52.044;4.582;2022-11-15T06:24:47;18.83;;;8.38;;
36257;SDS011;22294;52.044;4.582;2022-11-15T06:27:12;22.50;;;7.70;;
36257;SDS011;22294;52.044;4.582;2022-11-15T06:29:37;18.45;;;8.43;;
36257;SDS011;22294;52.044;4.582;2022-11-15T06:32:03;16.35;;;6.82;;
36257;SDS011;22294;52.044;4.582;2022-11-15T06:34:28;17.63;;;7.22;;
36257;SDS011;22294;52.044;4.582;2022-11-15T06:36:53;13.32;;;6.75;;
36257;SDS011;22294;52.044;4.582;2022-11-15T06:39:19;17.33;;;6.88;;
36257;SDS011;22294;52.044;4.582;2022-11-15T06:41:44;13.50;;;6.60;;
36257;SDS011;22294;52.044;4.582;2022-11-15T06:44:09;14.95;;;6.10;;
36257;SDS011;22294;52.044;4.582;2022-11-15T06:46:35;13.77;;;6.47;;
36257;SDS011;22294;52.044;4.582;2022-11-15T06:49:00;9.60;;;5.50;;
36257;SDS011;22294;52.044;4.582;2022-11-15T06:51:25;10.43;;;6.28;;
36257;SDS011;22294;52.044;4.582;2022-11-15T06:53:50;12.77;;;5.95;;
36257;SDS011;22294;52.044;4.582;2022-11-15T06:56:16;12.30;;;5.85;;
36257;SDS011;22294;52.044;4.582;2022-11-15T06:58:41;11.98;;;5.65;;
36257;SDS011;22294;52.044;4.582;2022-11-15T07:01:08;16.02;;;5.45;;
36257;SDS011;22294;52.044;4.582;2022-11-15T07:03:36;13.95;;;6.07;;
36257;SDS011;22294;52.044;4.582;2022-11-15T07:06:06;13.20;;;5.93;;
36257;SDS011;22294;52.044;4.582;2022-11-15T07:08:32;16.95;;;6.00;;
36257;SDS011;22294;52.044;4.582;2022-11-15T07:10:58;17.58;;;6.13;;
36257;SDS011;22294;52.044;4.582;2022-11-15T07:13:27;10.07;;;4.90;;
36257;SDS011;22294;52.044;4.582;2022-11-15T07:15:53;10.52;;;5.03;;
36257;SDS011;22294;52.044;4.582;2022-11-15T07:18:19;15.40;;;4.95;;
36257;SDS011;22294;52.044;4.582;2022-11-15T07:20:44;14.18;;;5.50;;
36257;SDS011;22294;52.044;4.582;2022-11-15T07:23:09;17.38;;;5.30;;
36257;SDS011;22294;52.044;4.582;2022-11-15T07:25:35;16.50;;;5.35;;
36257;SDS011;22294;52.044;4.582;2022-11-15T07:28:00;14.93;;;6.10;;
36257;SDS011;22294;52.044;4.582;2022-11-15T07:30:26;14.68;;;5.30;;
36257;SDS011;22294;52.044;4.582;2022-11-15T07:32:52;11.43;;;5.57;;
36257;SDS011;22294;52.044;4.582;2022-11-15T07:35:21;13.68;;;6.05;;
36257;SDS011;22294;52.044;4.582;2022-11-15T07:37:57;14.88;;;5.50;;
36257;SDS011;22294;52.044;4.582;2022-11-15T07:40:25;14.05;;;5.75;;
36257;SDS011;22294;52.044;4.582;2022-11-15T07:42:51;17.80;;;6.00;;
36257;SDS011;22294;52.044;4.582;2022-11-15T07:45:20;12.20;;;5.97;;
36257;SDS011;22294;52.044;4.582;2022-11-15T07:47:47;13.57;;;5.57;;
36257;SDS011;22294;52.044;4.582;2022-11-15T07:50:13;14.02;;;5.65;;
36257;SDS011;22294;52.044;4.582;2022-11-15T07:52:38;10.93;;;5.60;;
36257;SDS011;22294;52.044;4.582;2022-11-15T07:55:04;9.95;;;5.40;;
36257;SDS011;22294;52.044;4.582;2022-11-15T07:57:30;12.02;;;4.95;;
36257;SDS011;22294;52.044;4.582;2022-11-15T07:59:55;12.93;;;5.57;;
36257;SDS011;22294;52.044;4.582;2022-11-15T08:02:20;16.60;;;5.47;;
36257;SDS011;22294;52.044;4.582;2022-11-15T08:04:46;12.20;;;5.20;;
36257;SDS011;22294;52.044;4.582;2022-11-15T08:07:11;16.83;;;5.90;;
36257;SDS011;22294;52.044;4.582;2022-11-15T08:09:37;14.23;;;6.30;;
36257;SDS011;22294;52.044;4.582;2022-11-15T08:12:02;15.40;;;6.80;;
36257;SDS011;22294;52.044;4.582;2022-11-15T08:14:28;13.80;;;6.20;;
36257;SDS011;22294;52.044;4.582;2022-11-15T08:16:54;12.60;;;6.95;;
36257;SDS011;22294;52.044;4.582;2022-11-15T08:19:19;12.20;;;6.55;;
36257;SDS011;22294;52.044;4.582;2022-11-15T08:21:45;11.10;;;6.57;;
36257;SDS011;22294;52.044;4.582;2022-11-15T08:24:10;16.67;;;6.78;;
36257;SDS011;22294;52.044;4.582;2022-11-15T08:26:35;12.68;;;7.30;;
36257;SDS011;22294;52.044;4.582;2022-11-15T08:29:01;14.80;;;8.05;;
36257;SDS011;22294;52.044;4.582;2022-11-15T08:31:26;13.13;;;7.22;;
36257;SDS011;22294;52.044;4.582;2022-11-15T08:33:51;15.50;;;7.72;;
36257;SDS011;22294;52.044;4.582;2022-11-15T08:36:17;19.50;;;8.60;;
36257;SDS011;22294;52.044;4.582;2022-11-15T08:38:42;16.45;;;8.52;;
36257;SDS011;22294;52.044;4.582;2022-11-15T08:41:13;15.73;;;8.18;;
36257;SDS011;22294;52.044;4.582;2022-11-15T08:43:44;14.43;;;7.97;;
36257;SDS011;22294;52.044;4.582;2022-11-15T08:46:12;15.70;;;8.65;;
36257;SDS011;22294;52.044;4.582;2022-11-15T08:48:38;14.07;;;7.65;;
36257;SDS011;22294;52.044;4.582;2022-11-15T08:51:03;16.25;;;8.40;;
36257;SDS011;22294;52.044;4.582;2022-11-15T08:53:29;15.35;;;8.20;;
36257;SDS011;22294;52.044;4.582;2022-11-15T08:55:54;15.18;;;8.20;;
36257;SDS011;22294;52.044;4.582;2022-11-15T08:58:20;15.55;;;8.32;;
36257;SDS011;22294;52.044;4.582;2022-11-15T09:00:45;15.93;;;8.23;;
36257;SDS011;22294;52.044;4.582;2022-11-15T09:03:10;13.57;;;6.63;;
36257;SDS011;22294;52.044;4.582;2022-11-15T09:05:36;13.65;;;7.05;;
36257;SDS011;22294;52.044;4.582;2022-11-15T09:08:02;12.90;;;7.32;;
36257;SDS011;22294;52.044;4.582;2022-11-15T09:10:28;16.50;;;6.72;;
36257;SDS011;22294;52.044;4.582;2022-11-15T09:12:53;12.20;;;6.90;;
36257;SDS011;22294;52.044;4.582;2022-11-15T09:15:18;11.40;;;6.32;;
36257;SDS011;22294;52.044;4.582;2022-11-15T09:17:44;13.45;;;6.60;;
36257;SDS011;22294;52.044;4.582;2022-11-15T09:20:10;10.02;;;6.40;;
36257;SDS011;22294;52.044;4.582;2022-11-15T09:22:36;9.48;;;6.25;;
36257;SDS011;22294;52.044;4.582;2022-11-15T09:25:03;16.05;;;7.05;;
36257;SDS011;22294;52.044;4.582;2022-11-15T09:27:29;9.68;;;5.78;;
36257;SDS011;22294;52.044;4.582;2022-11-15T09:29:55;10.10;;;6.30;;
36257;SDS011;22294;52.044;4.582;2022-11-15T09:32:20;10.98;;;6.00;;
36257;SDS011;22294;52.044;4.582;2022-11-15T09:34:47;10.55;;;6.18;;
36257;SDS011;22294;52.044;4.582;2022-11-15T09:37:13;11.80;;;5.43;;
36257;SDS011;22294;52.044;4.582;2022-11-15T09:39:38;8.20;;;5.70;;
36257;SDS011;22294;52.044;4.582;2022-11-15T09:47:40;7.90;;;5.22;;
36257;SDS011;22294;52.044;4.582;2022-11-15T09:50:28;7.70;;;5.05;;
36257;SDS011;22294;52.044;4.582;2022-11-15T09:52:58;9.68;;;4.88;;
36257;SDS011;22294;52.044;4.582;2022-11-15T09:55:32;12.00;;;4.85;;
36257;SDS011;22294;52.044;4.582;2022-11-15T10:00:51;8.55;;;3.97;;
36257;SDS011;22294;52.044;4.582;2022-11-15T10:03:29;13.48;;;4.38;;
36257;SDS011;22294;52.044;4.582;2022-11-15T10:06:02;10.40;;;4.28;;
36257;SDS011;22294;52.044;4.582;2022-11-15T10:11:32;8.00;;;3.75;;
36257;SDS011;22294;52.044;4.582;2022-11-15T10:14:10;9.90;;;3.10;;
36257;SDS011;22294;52.044;4.582;2022-11-15T10:19:35;11.05;;;3.55;;
36257;SDS011;22294;52.044;4.582;2022-11-15T10:24:43;6.73;;;3.20;;
36257;SDS011;22294;52.044;4.582;2022-11-15T10:27:11;8.63;;;3.20;;
36257;SDS011;22294;52.044;4.582;2022-11-15T10:29:45;8.10;;;3.15;;
36257;SDS011;22294;52.044;4.582;2022-11-15T10:32:16;8.90;;;3.22;;
36257;SDS011;22294;52.044;4.582;2022-11-15T10:34:42;8.98;;;3.85;;
36257;SDS011;22294;52.044;4.582;2022-11-15T10:37:08;9.05;;;3.30;;
36257;SDS011;22294;52.044;4.582;2022-11-15T10:39:34;7.03;;;3.45;;
36257;SDS011;22294;52.044;4.582;2022-11-15T10:42:14;8.15;;;3.63;;
36257;SDS011;22294;52.044;4.582;2022-11-15T10:44:42;8.48;;;3.35;;
36257;SDS011;22294;52.044;4.582;2022-11-15T10:47:28;7.53;;;3.53;;
36257;SDS011;22294;52.044;4.582;2022-11-15T10:49:57;8.20;;;3.30;;
36257;SDS011;22294;52.044;4.582;2022-11-15T10:52:25;11.95;;;3.10;;
36257;SDS011;22294;52.044;4.582;2022-11-15T10:54:53;13.50;;;3.40;;
36257;SDS011;22294;52.044;4.582;2022-11-15T10:57:27;5.80;;;2.50;;
36257;SDS011;22294;52.044;4.582;2022-11-15T10:59:59;8.63;;;3.13;;
36257;SDS011;22294;52.044;4.582;2022-11-15T11:02:29;8.27;;;2.88;;
36257;SDS011;22294;52.044;4.582;2022-11-15T11:05:04;10.65;;;2.47;;
36257;SDS011;22294;52.044;4.582;2022-11-15T11:07:33;12.40;;;3.17;;
36257;SDS011;22294;52.044;4.582;2022-11-15T11:10:32;9.40;;;2.72;;
36257;SDS011;22294;52.044;4.582;2022-11-15T11:12:50;6.90;;;2.42;;
36257;SDS011;22294;52.044;4.582;2022-11-15T11:15:16;7.82;;;2.55;;
36257;SDS011;22294;52.044;4.582;2022-11-15T11:17:51;8.88;;;2.90;;
36257;SDS011;22294;52.044;4.582;2022-11-15T11:25:57;7.47;;;2.60;;
36257;SDS011;22294;52.044;4.582;2022-11-15T11:34:00;8.15;;;2.15;;
36257;SDS011;22294;52.044;4.582;2022-11-15T11:39:17;5.93;;;2.08;;
36257;SDS011;22294;52.044;4.582;2022-11-15T11:45:26;5.00;;;1.77;;
36257;SDS011;22294;52.044;4.582;2022-11-15T11:51:06;7.65;;;2.03;;
36257;SDS011;22294;52.044;4.582;2022-11-15T11:56:31;9.18;;;1.95;;
36257;SDS011;22294;52.044;4.582;2022-11-15T11:59:14;6.68;;;1.80;;
36257;SDS011;22294;52.044;4.582;2022-11-15T12:01:46;7.70;;;2.05;;
36257;SDS011;22294;52.044;4.582;2022-11-15T12:04:14;4.47;;;1.60;;
36257;SDS011;22294;52.044;4.582;2022-11-15T12:06:52;6.65;;;1.60;;
36257;SDS011;22294;52.044;4.582;2022-11-15T12:09:33;4.25;;;1.58;;
36257;SDS011;22294;52.044;4.582;2022-11-15T12:17:28;6.13;;;1.30;;
36257;SDS011;22294;52.044;4.582;2022-11-15T12:19:57;4.88;;;1.70;;
36257;SDS011;22294;52.044;4.582;2022-11-15T12:22:36;5.15;;;1.50;;
36257;SDS011;22294;52.044;4.582;2022-11-15T12:25:12;7.65;;;1.83;;
36257;SDS011;22294;52.044;4.582;2022-11-15T12:31:11;6.57;;;1.67;;
36257;SDS011;22294;52.044;4.582;2022-11-15T12:33:39;9.48;;;1.55;;
36257;SDS011;22294;52.044;4.582;2022-11-15T12:41:13;7.70;;;1.20;;
36257;SDS011;22294;52.044;4.582;2022-11-15T12:43:42;2.03;;;1.03;;
36257;SDS011;22294;52.044;4.582;2022-11-15T12:48:58;7.25;;;1.50;;
36257;SDS011;22294;52.044;4.582;2022-11-15T13:02:18;5.25;;;1.33;;
36257;SDS011;22294;52.044;4.582;2022-11-15T13:04:46;5.72;;;1.33;;
36257;SDS011;22294;52.044;4.582;2022-11-15T13:09:59;6.68;;;1.60;;
36257;SDS011;22294;52.044;4.582;2022-11-15T13:17:37;5.63;;;1.50;;
36257;SDS011;22294;52.044;4.582;2022-11-15T13:22:45;3.03;;;0.95;;
36257;SDS011;22294;52.044;4.582;2022-11-15T13:28:02;4.35;;;1.10;;
36257;SDS011;22294;52.044;4.582;2022-11-15T13:33:25;5.60;;;1.48;;
36257;SDS011;22294;52.044;4.582;2022-11-15T13:35:54;4.72;;;1.08;;
36257;SDS011;22294;52.044;4.582;2022-11-15T13:38:33;3.55;;;1.15;;
36257;SDS011;22294;52.044;4.582;2022-11-15T13:41:11;6.85;;;1.00;;
36257;SDS011;22294;52.044;4.582;2022-11-15T13:43:43;5.72;;;1.30;;
36257;SDS011;22294;52.044;4.582;2022-11-15T13:48:51;8.63;;;1.50;;
36257;SDS011;22294;52.044;4.582;2022-11-15T13:56:43;5.57;;;1.25;;
36257;SDS011;22294;52.044;4.582;2022-11-15T13:59:21;3.00;;;0.90;;
36257;SDS011;22294;52.044;4.582;2022-11-15T14:01:48;5.95;;;1.83;;
36257;SDS011;22294;52.044;4.582;2022-11-15T14:04:18;5.68;;;1.20;;
36257;SDS011;22294;52.044;4.582;2022-11-15T14:06:46;4.13;;;0.90;;
36257;SDS011;22294;52.044;4.582;2022-11-15T14:09:16;4.00;;;0.98;;
36257;SDS011;22294;52.044;4.582;2022-11-15T14:12:27;5.13;;;1.00;;
36257;SDS011;22294;52.044;4.582;2022-11-15T14:17:53;3.40;;;0.90;;
36257;SDS011;22294;52.044;4.582;2022-11-15T14:20:19;3.60;;;1.20;;
36257;SDS011;22294;52.044;4.582;2022-11-15T14:23:04;7.47;;;1.25;;
36257;SDS011;22294;52.044;4.582;2022-11-15T14:25:51;4.30;;;1.08;;
36257;SDS011;22294;52.044;4.582;2022-11-15T14:30:43;6.83;;;1.17;;
36257;SDS011;22294;52.044;4.582;2022-11-15T14:33:19;5.45;;;1.23;;
36257;SDS011;22294;52.044;4.582;2022-11-15T14:35:56;5.50;;;1.17;;
36257;SDS011;22294;52.044;4.582;2022-11-15T14:38:23;7.10;;;1.00;;
36257;SDS011;22294;52.044;4.582;2022-11-15T14:40:49;4.88;;;1.08;;
36257;SDS011;22294;52.044;4.582;2022-11-15T14:43:15;10.77;;;1.27;;
36257;SDS011;22294;52.044;4.582;2022-11-15T14:45:40;5.32;;;0.93;;
36257;SDS011;22294;52.044;4.582;2022-11-15T14:48:06;4.07;;;0.90;;
36257;SDS011;22294;52.044;4.582;2022-11-15T14:50:32;6.80;;;1.42;;
36257;SDS011;22294;52.044;4.582;2022-11-15T14:52:58;5.93;;;1.00;;
36257;SDS011;22294;52.044;4.582;2022-11-15T14:55:25;5.38;;;1.48;;
36257;SDS011;22294;52.044;4.582;2022-11-15T14:57:52;6.25;;;1.05;;
36257;SDS011;22294;52.044;4.582;2022-11-15T15:00:18;8.18;;;1.83;;
36257;SDS011;22294;52.044;4.582;2022-11-15T15:02:44;7.32;;;1.52;;
36257;SDS011;22294;52.044;4.582;2022-11-15T15:07:43;2.33;;;1.23;;
36257;SDS011;22294;52.044;4.582;2022-11-15T15:10:09;4.32;;;1.45;;
36257;SDS011;22294;52.044;4.582;2022-11-15T15:12:35;2.38;;;0.90;;
36257;SDS011;22294;52.044;4.582;2022-11-15T15:15:01;6.28;;;1.52;;
36257;SDS011;22294;52.044;4.582;2022-11-15T15:17:26;5.13;;;1.27;;
36257;SDS011;22294;52.044;4.582;2022-11-15T15:19:51;4.70;;;1.25;;
36257;SDS011;22294;52.044;4.582;2022-11-15T15:22:18;5.22;;;1.27;;
36257;SDS011;22294;52.044;4.582;2022-11-15T15:24:47;3.13;;;1.15;;
36257;SDS011;22294;52.044;4.582;2022-11-15T15:27:13;5.57;;;1.40;;
36257;SDS011;22294;52.044;4.582;2022-11-15T15:29:39;4.20;;;1.17;;
36257;SDS011;22294;52.044;4.582;2022-11-15T15:32:05;4.43;;;1.58;;
36257;SDS011;22294;52.044;4.582;2022-11-15T15:34:30;4.10;;;1.55;;
36257;SDS011;22294;52.044;4.582;2022-11-15T15:37:12;7.82;;;3.30;;
36257;SDS011;22294;52.044;4.582;2022-11-15T15:39:49;6.45;;;2.83;;
36257;SDS011;22294;52.044;4.582;2022-11-15T15:42:15;6.28;;;2.70;;
36257;SDS011;22294;52.044;4.582;2022-11-15T15:44:40;8.60;;;2.83;;
36257;SDS011;22294;52.044;4.582;2022-11-15T15:47:12;5.03;;;1.95;;
36257;SDS011;22294;52.044;4.582;2022-11-15T15:49:48;3.17;;;1.88;;
36257;SDS011;22294;52.044;4.582;2022-11-15T15:52:14;4.63;;;1.45;;
36257;SDS011;22294;52.044;4.582;2022-11-15T15:54:40;4.68;;;1.83;;
36257;SDS011;22294;52.044;4.582;2022-11-15T15:57:06;6.78;;;1.70;;
36257;SDS011;22294;52.044;4.582;2022-11-15T15:59:32;4.25;;;2.03;;
36257;SDS011;22294;52.044;4.582;2022-11-15T16:01:58;4.65;;;1.60;;
36257;SDS011;22294;52.044;4.582;2022-11-15T16:04:23;4.28;;;1.30;;
36257;SDS011;22294;52.044;4.582;2022-11-15T16:06:48;4.43;;;1.52;;
36257;SDS011;22294;52.044;4.582;2022-11-15T16:09:17;7.00;;;2.20;;
36257;SDS011;22294;52.044;4.582;2022-11-15T16:11:44;5.30;;;1.70;;
36257;SDS011;22294;52.044;4.582;2022-11-15T16:14:10;6.57;;;1.42;;
36257;SDS011;22294;52.044;4.582;2022-11-15T16:16:36;4.38;;;1.25;;
36257;SDS011;22294;52.044;4.582;2022-11-15T16:19:02;5.05;;;1.63;;
36257;SDS011;22294;52.044;4.582;2022-11-15T16:21:28;4.05;;;2.10;;
36257;SDS011;22294;52.044;4.582;2022-11-15T16:23:54;8.05;;;1.85;;
36257;SDS011;22294;52.044;4.582;2022-11-15T16:26:26;4.30;;;1.70;;
36257;SDS011;22294;52.044;4.582;2022-11-15T16:28:53;4.65;;;2.00;;
36257;SDS011;22294;52.044;4.582;2022-11-15T16:31:19;4.68;;;1.88;;
36257;SDS011;22294;52.044;4.582;2022-11-15T16:33:47;5.50;;;2.10;;
36257;SDS011;22294;52.044;4.582;2022-11-15T16:36:22;6.30;;;1.90;;
36257;SDS011;22294;52.044;4.582;2022-11-15T16:38:49;6.03;;;1.83;;
36257;SDS011;22294;52.044;4.582;2022-11-15T16:41:15;11.35;;;2.15;;
36257;SDS011;22294;52.044;4.582;2022-11-15T16:43:43;4.38;;;1.83;;
36257;SDS011;22294;52.044;4.582;2022-11-15T16:46:13;5.90;;;2.10;;
36257;SDS011;22294;52.044;4.582;2022-11-15T16:48:47;8.82;;;1.98;;
36257;SDS011;22294;52.044;4.582;2022-11-15T16:51:13;5.82;;;3.10;;